createdAt,value
2023-01-24T00:17:14.683Z,15.80
2023-01-24T00:19:41.609Z,16.70
2023-01-24T00:22:08.722Z,15.30
2023-01-24T00:24:36.731Z,16.10
2023-01-24T00:27:03.527Z,21.90
2023-01-24T00:29:32.116Z,22.50
2023-01-24T00:31:59.097Z,18.60
2023-01-24T00:34:25.960Z,15.20
2023-01-24T00:36:54.087Z,15.00
2023-01-24T00:39:21.008Z,13.90
2023-01-24T00:41:47.807Z,14.90
2023-01-24T00:44:15.261Z,15.50
2023-01-24T00:46:42.510Z,19.90
2023-01-24T00:49:09.250Z,19.50
2023-01-24T00:51:37.232Z,16.40
2023-01-24T00:54:04.351Z,14.80
2023-01-24T00:56:31.064Z,18.30
2023-01-24T00:58:57.721Z,17.90
2023-01-24T01:01:24.453Z,15.70
2023-01-24T01:03:55.557Z,17.40
2023-01-24T01:06:22.680Z,17.10
2023-01-24T01:08:49.400Z,17.20
2023-01-24T01:11:16.193Z,16.70
2023-01-24T01:13:43.550Z,15.80
2023-01-24T01:16:12.099Z,15.40
2023-01-24T01:18:39.441Z,18.20
2023-01-24T01:21:06.541Z,17.30
2023-01-24T01:23:34.021Z,17.40
2023-01-24T01:26:02.056Z,15.30
2023-01-24T01:28:29.190Z,16.10
2023-01-24T01:30:56.162Z,15.00
2023-01-24T01:33:23.290Z,15.20
2023-01-24T01:35:50.563Z,13.80
2023-01-24T01:38:18.015Z,14.80
2023-01-24T01:40:44.719Z,15.40
2023-01-24T01:43:16.572Z,13.60
2023-01-24T01:45:50.901Z,17.50
2023-01-24T01:48:34.386Z,13.10
2023-01-24T01:51:16.679Z,16.20
2023-01-24T01:53:50.384Z,15.70
2023-01-24T01:56:30.759Z,19.60
2023-01-24T01:58:58.853Z,14.00
2023-01-24T02:01:25.835Z,13.40
2023-01-24T02:04:04.684Z,15.30
2023-01-24T02:07:02.935Z,11.10
2023-01-24T02:09:33.743Z,14.20
2023-01-24T02:12:03.627Z,14.90
2023-01-24T02:14:50.465Z,12.80
2023-01-24T02:17:18.973Z,16.90
2023-01-24T02:19:54.791Z,16.40
2023-01-24T02:22:31.135Z,20.30
2023-01-24T02:25:14.598Z,18.20
2023-01-24T02:27:41.267Z,17.80
2023-01-24T02:30:08.809Z,14.70
2023-01-24T02:32:36.145Z,16.90
2023-01-24T02:35:04.427Z,15.10
2023-01-24T02:37:32.489Z,17.60
2023-01-24T02:40:05.889Z,20.00
2023-01-24T02:42:37.081Z,19.00
2023-01-24T02:45:25.769Z,15.20
2023-01-24T02:47:53.741Z,18.00
2023-01-24T02:50:22.452Z,16.10
2023-01-24T02:53:07.839Z,13.30
2023-01-24T02:55:54.738Z,14.10
2023-01-24T02:58:21.652Z,14.70
2023-01-24T03:00:48.609Z,14.90
2023-01-24T03:03:15.865Z,21.50
2023-01-24T03:05:58.153Z,17.80
2023-01-24T03:08:35.664Z,16.30
2023-01-24T03:11:05.414Z,14.30
2023-01-24T03:13:52.269Z,17.90
2023-01-24T03:16:37.887Z,15.20
2023-01-24T03:19:23.971Z,19.30
2023-01-24T03:22:10.500Z,17.20
2023-01-24T03:24:56.065Z,20.50
2023-01-24T03:27:41.468Z,25.10
2023-01-24T03:30:28.930Z,17.70
2023-01-24T03:33:18.856Z,13.20
2023-01-24T03:35:53.724Z,19.30
2023-01-24T03:38:41.317Z,18.70
2023-01-24T03:41:08.859Z,15.60
2023-01-24T03:43:36.143Z,21.20
2023-01-24T08:14:05.936Z,21.10
2023-01-24T08:16:32.895Z,31.50
2023-01-24T08:19:00.397Z,27.70
2023-01-24T08:21:27.231Z,25.10
2023-01-24T08:23:53.999Z,30.60
2023-01-24T08:26:22.178Z,21.30
2023-01-24T08:28:49.299Z,34.10
2023-01-24T08:31:16.045Z,23.30
2023-01-24T08:33:42.871Z,20.70
2023-01-24T08:36:09.494Z,19.80
2023-01-24T08:38:36.280Z,16.10
2023-01-24T08:41:04.532Z,22.00
2023-01-24T08:43:31.916Z,28.00
2023-01-24T08:45:58.922Z,17.00
2023-01-24T08:48:25.734Z,20.10
2023-01-24T08:50:52.832Z,28.30
2023-01-24T08:53:19.566Z,30.50
2023-01-24T08:55:52.193Z,23.10
2023-01-24T08:58:21.288Z,18.50
2023-01-24T09:00:48.495Z,13.80
2023-01-24T09:03:16.810Z,18.80
2023-01-24T09:05:44.054Z,19.40
2023-01-24T09:08:10.869Z,19.30
2023-01-24T09:10:39.371Z,19.70
2023-01-24T09:13:07.389Z,21.40
2023-01-24T09:15:34.589Z,19.40
2023-01-24T09:18:02.829Z,17.70
2023-01-24T09:20:30.321Z,16.70
2023-01-24T09:22:57.361Z,20.90
2023-01-24T09:25:24.358Z,24.20
2023-01-24T09:27:55.155Z,20.30
2023-01-24T09:30:22.894Z,21.10
2023-01-24T09:32:50.916Z,19.50
2023-01-24T09:35:17.873Z,22.20
2023-01-24T09:37:45.463Z,23.70
2023-01-24T09:40:19.038Z,16.70
2023-01-24T09:42:52.755Z,22.60
2023-01-24T09:45:22.376Z,20.10
2023-01-24T09:47:54.423Z,19.00
2023-01-24T09:50:26.292Z,14.30
2023-01-24T09:52:55.103Z,23.80
2023-01-24T09:55:29.758Z,17.80
2023-01-24T09:58:09.256Z,18.10
2023-01-24T10:00:37.266Z,20.60
2023-01-24T10:03:23.644Z,20.00
2023-01-24T10:05:55.178Z,19.90
2023-01-24T10:08:37.259Z,19.40
2023-01-24T10:11:25.220Z,16.70
2023-01-24T10:14:01.646Z,18.40
2023-01-24T10:16:39.042Z,19.20
2023-01-24T10:19:22.086Z,19.20
2023-01-24T10:22:02.711Z,19.40
2023-01-24T10:24:32.602Z,20.70
2023-01-24T10:27:16.179Z,29.60
2023-01-24T10:29:43.044Z,22.00
2023-01-24T10:32:15.502Z,22.30
2023-01-24T10:34:44.395Z,21.90
2023-01-24T10:37:11.249Z,18.50
2023-01-24T10:47:37.888Z,19.20
2023-01-24T10:50:07.859Z,17.50
2023-01-24T10:52:36.196Z,16.50
2023-01-24T10:55:07.052Z,17.50
2023-01-24T10:57:45.108Z,25.20
2023-01-24T11:00:29.049Z,21.10
2023-01-24T11:02:59.773Z,20.90
2023-01-24T11:05:39.802Z,21.80
2023-01-24T11:08:26.116Z,29.80
2023-01-24T11:10:56.772Z,23.10
2023-01-24T11:13:41.608Z,23.20
2023-01-24T11:16:16.126Z,22.40
2023-01-24T11:18:52.894Z,20.50
2023-01-24T11:21:21.299Z,17.10
2023-01-24T11:24:06.111Z,18.60
2023-01-24T11:26:39.776Z,18.50
2023-01-24T11:29:16.836Z,20.40
2023-01-24T11:32:20.639Z,17.70
2023-01-24T11:34:59.209Z,16.90
2023-01-24T11:37:54.983Z,19.90
2023-01-24T16:17:09.031Z,27.10
2023-01-24T16:19:36.297Z,29.20
2023-01-24T16:22:03.128Z,31.20
2023-01-24T16:24:31.004Z,27.60
2023-01-24T16:26:58.147Z,30.20
2023-01-24T16:29:26.526Z,25.30
2023-01-24T16:31:53.554Z,35.30
2023-01-24T16:34:20.520Z,30.40
2023-01-24T16:36:47.471Z,23.00
2023-01-24T16:39:19.015Z,35.40
2023-01-24T16:41:49.763Z,23.50
2023-01-24T16:44:17.214Z,29.20
2023-01-24T16:46:49.762Z,24.60
2023-01-24T16:49:20.426Z,24.20
2023-01-24T16:51:47.814Z,26.60
2023-01-24T16:54:15.349Z,28.60
2023-01-24T16:56:43.217Z,24.50
2023-01-24T16:59:10.394Z,24.40
2023-01-24T17:01:37.804Z,24.80
2023-01-24T17:04:04.971Z,26.70
2023-01-24T17:06:32.738Z,27.30
2023-01-24T17:08:59.797Z,25.60
2023-01-24T17:11:27.655Z,24.60
2023-01-24T17:13:54.598Z,30.60
2023-01-24T17:16:22.103Z,25.60
2023-01-24T17:18:49.525Z,24.30
2023-01-24T17:21:16.977Z,25.80
2023-01-24T17:23:44.058Z,25.60
2023-01-24T17:26:13.124Z,26.50
2023-01-24T17:28:41.106Z,26.20
2023-01-24T17:31:15.336Z,28.90
2023-01-24T17:33:42.474Z,25.20
2023-01-24T17:36:09.921Z,30.30
2023-01-24T17:38:37.480Z,25.90
2023-01-24T17:41:04.637Z,23.40
2023-01-24T17:43:43.944Z,26.80
2023-01-24T17:46:18.235Z,24.60
2023-01-24T17:48:45.754Z,28.30
2023-01-24T17:51:17.857Z,22.10
2023-01-24T17:53:45.069Z,25.30
2023-01-24T17:56:13.551Z,30.70
2023-01-24T17:58:40.602Z,24.80
2023-01-24T18:01:08.600Z,25.10
2023-01-24T18:03:36.242Z,19.40
2023-01-24T18:06:05.030Z,25.10
2023-01-24T18:08:32.088Z,24.50
2023-01-24T18:11:07.887Z,27.50
2023-01-24T18:13:36.315Z,27.00
2023-01-24T18:16:08.396Z,21.70
2023-01-24T18:18:36.554Z,27.00
2023-01-24T18:21:22.427Z,25.30
2023-01-24T18:23:53.532Z,24.50
2023-01-24T18:26:21.063Z,26.70
2023-01-24T18:28:48.157Z,24.80
2023-01-24T18:31:15.603Z,22.20
2023-01-24T18:33:42.707Z,22.20
2023-01-24T18:36:11.703Z,25.60
2023-01-24T18:38:38.850Z,26.60
2023-01-24T18:41:06.512Z,26.30
2023-01-24T18:43:33.864Z,26.10
2023-01-24T18:46:02.921Z,22.00
2023-01-24T18:48:34.245Z,23.60
2023-01-24T18:51:08.461Z,23.30
2023-01-24T18:53:35.485Z,26.60
2023-01-24T18:56:03.558Z,25.90
2023-01-24T18:58:32.046Z,24.70
2023-01-24T19:01:00.932Z,22.50
2023-01-24T19:03:27.975Z,21.10
2023-01-24T19:05:55.024Z,22.00
2023-01-24T19:08:24.108Z,21.20
2023-01-24T19:10:52.430Z,25.30
2023-01-24T19:13:19.891Z,21.80
2023-01-24T19:15:47.620Z,23.10
2023-01-24T22:12:16.487Z,31.30
2023-01-24T22:14:43.581Z,27.90
2023-01-24T22:17:15.693Z,28.50
2023-01-24T22:19:48.803Z,29.50
2023-01-24T22:22:19.550Z,22.40
2023-01-24T22:25:06.260Z,19.40
2023-01-24T22:30:56.268Z,24.50
2023-01-24T22:33:23.522Z,25.50
2023-01-24T22:35:52.817Z,22.60
2023-01-24T22:38:25.967Z,24.30
2023-01-24T22:40:53.493Z,20.60
2023-01-24T22:43:20.313Z,22.50
2023-01-24T22:45:47.397Z,26.50
2023-01-24T22:48:15.327Z,25.80
2023-01-24T22:50:42.845Z,24.50
2023-01-24T22:53:10.039Z,27.80
2023-01-24T22:55:40.193Z,22.60
2023-01-24T22:58:07.332Z,16.30
2023-01-24T23:00:34.265Z,18.20
2023-01-24T23:03:01.196Z,11.20
2023-01-24T23:05:28.508Z,10.60
2023-01-24T23:07:55.526Z,10.40
2023-01-24T23:10:22.595Z,11.50
2023-01-24T23:13:21.821Z,12.00
2023-01-24T23:16:07.148Z,10.20
2023-01-24T23:18:53.350Z,10.40
2023-01-24T23:21:32.862Z,9.50
2023-01-24T23:24:00.746Z,7.60
2023-01-24T23:26:28.792Z,19.30
2023-01-24T23:29:27.105Z,14.00
2023-01-24T23:31:56.089Z,10.50
2023-01-24T23:34:36.378Z,13.00
2023-01-24T23:37:03.214Z,14.30
2023-01-24T23:39:30.115Z,13.50
2023-01-24T23:41:56.885Z,10.70
2023-01-24T23:44:23.717Z,11.80
2023-01-24T23:46:50.579Z,13.30
2023-01-24T23:49:17.538Z,11.80
2023-01-24T23:51:44.985Z,13.30
2023-01-24T23:54:11.927Z,11.70
2023-01-24T23:56:39.056Z,14.10
2023-01-24T23:59:06.025Z,10.90
